sensor_id;sensor_type;location;lat;lon;timestamp;P1;durP1;ratioP1;P2;durP2;ratioP2
45540;SDS011;31265;49.680;8.608;2024-02-16T00:00:35;3.53;;;1.63;;
45540;SDS011;31265;49.680;8.608;2024-02-16T00:03:04;2.88;;;1.38;;
45540;SDS011;31265;49.680;8.608;2024-02-16T00:05:32;5.72;;;1.52;;
45540;SDS011;31265;49.680;8.608;2024-02-16T00:08:02;6.90;;;1.58;;
45540;SDS011;31265;49.680;8.608;2024-02-16T00:10:35;4.32;;;1.27;;
45540;SDS011;31265;49.680;8.608;2024-02-16T00:13:04;2.30;;;1.42;;
45540;SDS011;31265;49.680;8.608;2024-02-16T00:15:32;3.03;;;1.42;;
45540;SDS011;31265;49.680;8.608;2024-02-16T00:18:01;6.88;;;1.85;;
45540;SDS011;31265;49.680;8.608;2024-02-16T00:20:30;3.03;;;1.17;;
45540;SDS011;31265;49.680;8.608;2024-02-16T00:22:59;4.57;;;1.38;;
45540;SDS011;31265;49.680;8.608;2024-02-16T00:25:28;3.22;;;1.30;;
45540;SDS011;31265;49.680;8.608;2024-02-16T00:27:58;3.28;;;1.33;;
45540;SDS011;31265;49.680;8.608;2024-02-16T00:30:27;3.55;;;1.30;;
45540;SDS011;31265;49.680;8.608;2024-02-16T00:32:56;4.60;;;1.50;;
45540;SDS011;31265;49.680;8.608;2024-02-16T00:35:25;6.07;;;1.58;;
45540;SDS011;31265;49.680;8.608;2024-02-16T00:37:54;3.60;;;1.48;;
45540;SDS011;31265;49.680;8.608;2024-02-16T00:42:51;3.65;;;1.42;;
45540;SDS011;31265;49.680;8.608;2024-02-16T00:45:21;3.47;;;1.02;;
45540;SDS011;31265;49.680;8.608;2024-02-16T00:47:50;2.53;;;1.00;;
45540;SDS011;31265;49.680;8.608;2024-02-16T00:50:18;3.47;;;1.40;;
45540;SDS011;31265;49.680;8.608;2024-02-16T00:52:47;3.42;;;1.45;;
45540;SDS011;31265;49.680;8.608;2024-02-16T00:55:15;3.22;;;0.95;;
45540;SDS011;31265;49.680;8.608;2024-02-16T00:57:44;2.97;;;1.15;;
45540;SDS011;31265;49.680;8.608;2024-02-16T01:00:12;3.10;;;1.08;;
45540;SDS011;31265;49.680;8.608;2024-02-16T01:02:43;2.55;;;0.90;;
45540;SDS011;31265;49.680;8.608;2024-02-16T01:05:12;4.97;;;1.08;;
45540;SDS011;31265;49.680;8.608;2024-02-16T01:07:44;3.58;;;1.50;;
45540;SDS011;31265;49.680;8.608;2024-02-16T01:10:14;5.57;;;1.10;;
45540;SDS011;31265;49.680;8.608;2024-02-16T01:12:42;4.13;;;1.13;;
45540;SDS011;31265;49.680;8.608;2024-02-16T01:15:11;2.27;;;1.20;;
45540;SDS011;31265;49.680;8.608;2024-02-16T01:17:39;4.80;;;1.10;;
45540;SDS011;31265;49.680;8.608;2024-02-16T01:20:10;2.47;;;0.88;;
45540;SDS011;31265;49.680;8.608;2024-02-16T01:22:39;2.05;;;1.08;;
45540;SDS011;31265;49.680;8.608;2024-02-16T01:25:08;1.73;;;0.82;;
45540;SDS011;31265;49.680;8.608;2024-02-16T01:27:36;2.58;;;1.27;;
45540;SDS011;31265;49.680;8.608;2024-02-16T01:30:05;3.13;;;0.73;;
45540;SDS011;31265;49.680;8.608;2024-02-16T01:32:35;5.05;;;1.13;;
45540;SDS011;31265;49.680;8.608;2024-02-16T01:35:04;3.78;;;1.05;;
45540;SDS011;31265;49.680;8.608;2024-02-16T01:37:35;2.50;;;0.98;;
45540;SDS011;31265;49.680;8.608;2024-02-16T01:40:03;5.07;;;0.95;;
45540;SDS011;31265;49.680;8.608;2024-02-16T01:45:01;3.00;;;1.33;;
45540;SDS011;31265;49.680;8.608;2024-02-16T01:47:30;1.60;;;0.70;;
45540;SDS011;31265;49.680;8.608;2024-02-16T01:49:59;1.75;;;0.70;;
45540;SDS011;31265;49.680;8.608;2024-02-16T01:52:27;2.63;;;1.00;;
45540;SDS011;31265;49.680;8.608;2024-02-16T01:54:59;3.72;;;0.98;;
45540;SDS011;31265;49.680;8.608;2024-02-16T01:57:30;5.97;;;1.08;;
45540;SDS011;31265;49.680;8.608;2024-02-16T02:02:30;3.42;;;1.00;;
45540;SDS011;31265;49.680;8.608;2024-02-16T02:04:59;1.95;;;0.90;;
45540;SDS011;31265;49.680;8.608;2024-02-16T02:07:29;2.83;;;1.00;;
45540;SDS011;31265;49.680;8.608;2024-02-16T02:09:59;3.03;;;0.93;;
45540;SDS011;31265;49.680;8.608;2024-02-16T02:14:55;1.92;;;0.80;;
45540;SDS011;31265;49.680;8.608;2024-02-16T02:17:24;2.22;;;1.33;;
45540;SDS011;31265;49.680;8.608;2024-02-16T02:19:52;1.27;;;0.60;;
45540;SDS011;31265;49.680;8.608;2024-02-16T02:22:23;1.37;;;0.77;;
45540;SDS011;31265;49.680;8.608;2024-02-16T02:24:53;2.40;;;1.13;;
45540;SDS011;31265;49.680;8.608;2024-02-16T02:27:23;3.15;;;0.90;;
45540;SDS011;31265;49.680;8.608;2024-02-16T02:29:51;2.30;;;1.15;;
45540;SDS011;31265;49.680;8.608;2024-02-16T02:32:19;3.58;;;1.00;;
45540;SDS011;31265;49.680;8.608;2024-02-16T02:34:48;1.90;;;0.85;;
45540;SDS011;31265;49.680;8.608;2024-02-16T02:37:17;3.40;;;1.23;;
45540;SDS011;31265;49.680;8.608;2024-02-16T02:39:46;5.65;;;1.60;;
45540;SDS011;31265;49.680;8.608;2024-02-16T02:42:15;2.22;;;0.70;;
45540;SDS011;31265;49.680;8.608;2024-02-16T02:44:43;2.33;;;0.98;;
45540;SDS011;31265;49.680;8.608;2024-02-16T02:47:17;2.75;;;1.00;;
45540;SDS011;31265;49.680;8.608;2024-02-16T02:49:45;1.80;;;0.88;;
45540;SDS011;31265;49.680;8.608;2024-02-16T02:52:13;2.50;;;0.68;;
45540;SDS011;31265;49.680;8.608;2024-02-16T02:54:42;4.43;;;0.68;;
45540;SDS011;31265;49.680;8.608;2024-02-16T02:57:12;6.82;;;1.42;;
45540;SDS011;31265;49.680;8.608;2024-02-16T02:59:40;2.08;;;0.77;;
45540;SDS011;31265;49.680;8.608;2024-02-16T03:02:09;2.67;;;0.90;;
45540;SDS011;31265;49.680;8.608;2024-02-16T03:04:37;2.60;;;1.13;;
45540;SDS011;31265;49.680;8.608;2024-02-16T03:07:06;2.00;;;0.80;;
45540;SDS011;31265;49.680;8.608;2024-02-16T03:09:35;2.42;;;0.90;;
45540;SDS011;31265;49.680;8.608;2024-02-16T03:12:04;2.17;;;0.90;;
45540;SDS011;31265;49.680;8.608;2024-02-16T03:14:34;2.47;;;0.93;;
45540;SDS011;31265;49.680;8.608;2024-02-16T03:19:30;4.38;;;1.00;;
45540;SDS011;31265;49.680;8.608;2024-02-16T03:21:59;1.13;;;0.50;;
45540;SDS011;31265;49.680;8.608;2024-02-16T03:24:28;1.65;;;0.63;;
45540;SDS011;31265;49.680;8.608;2024-02-16T03:26:57;2.95;;;0.73;;
45540;SDS011;31265;49.680;8.608;2024-02-16T03:29:25;6.50;;;1.27;;
45540;SDS011;31265;49.680;8.608;2024-02-16T03:31:55;1.83;;;0.75;;
45540;SDS011;31265;49.680;8.608;2024-02-16T03:36:52;4.60;;;1.27;;
45540;SDS011;31265;49.680;8.608;2024-02-16T03:39:20;1.67;;;0.60;;
45540;SDS011;31265;49.680;8.608;2024-02-16T03:41:49;2.60;;;0.80;;
45540;SDS011;31265;49.680;8.608;2024-02-16T03:44:18;2.47;;;1.02;;
45540;SDS011;31265;49.680;8.608;2024-02-16T03:46:46;3.10;;;1.00;;
45540;SDS011;31265;49.680;8.608;2024-02-16T03:49:17;3.03;;;1.00;;
45540;SDS011;31265;49.680;8.608;2024-02-16T03:51:45;2.60;;;1.55;;
45540;SDS011;31265;49.680;8.608;2024-02-16T03:54:14;2.45;;;1.08;;
45540;SDS011;31265;49.680;8.608;2024-02-16T03:56:53;2.53;;;0.68;;
45540;SDS011;31265;49.680;8.608;2024-02-16T03:59:21;2.33;;;1.15;;
45540;SDS011;31265;49.680;8.608;2024-02-16T04:01:51;3.47;;;1.08;;
45540;SDS011;31265;49.680;8.608;2024-02-16T04:04:19;1.83;;;0.90;;
45540;SDS011;31265;49.680;8.608;2024-02-16T04:06:48;3.50;;;0.82;;
45540;SDS011;31265;49.680;8.608;2024-02-16T04:09:16;1.92;;;0.70;;
45540;SDS011;31265;49.680;8.608;2024-02-16T04:11:44;2.25;;;0.82;;
45540;SDS011;31265;49.680;8.608;2024-02-16T04:14:14;5.07;;;0.97;;
45540;SDS011;31265;49.680;8.608;2024-02-16T04:16:43;4.80;;;1.00;;
45540;SDS011;31265;49.680;8.608;2024-02-16T04:19:12;3.72;;;1.05;;
45540;SDS011;31265;49.680;8.608;2024-02-16T04:21:40;4.05;;;0.90;;
45540;SDS011;31265;49.680;8.608;2024-02-16T04:24:08;2.28;;;1.23;;
45540;SDS011;31265;49.680;8.608;2024-02-16T04:26:37;2.33;;;0.88;;
45540;SDS011;31265;49.680;8.608;2024-02-16T04:29:05;1.58;;;0.82;;
45540;SDS011;31265;49.680;8.608;2024-02-16T04:31:35;2.53;;;1.05;;
45540;SDS011;31265;49.680;8.608;2024-02-16T04:34:03;1.65;;;0.60;;
45540;SDS011;31265;49.680;8.608;2024-02-16T04:36:32;2.50;;;0.73;;
45540;SDS011;31265;49.680;8.608;2024-02-16T04:39:00;3.05;;;0.80;;
45540;SDS011;31265;49.680;8.608;2024-02-16T04:41:29;2.43;;;1.00;;
45540;SDS011;31265;49.680;8.608;2024-02-16T04:43:58;1.52;;;0.70;;
45540;SDS011;31265;49.680;8.608;2024-02-16T04:46:26;1.80;;;0.80;;
45540;SDS011;31265;49.680;8.608;2024-02-16T04:48:56;2.65;;;1.17;;
45540;SDS011;31265;49.680;8.608;2024-02-16T04:51:24;2.88;;;1.02;;
45540;SDS011;31265;49.680;8.608;2024-02-16T04:53:53;1.92;;;0.85;;
45540;SDS011;31265;49.680;8.608;2024-02-16T04:56:21;2.97;;;1.13;;
45540;SDS011;31265;49.680;8.608;2024-02-16T04:58:50;2.38;;;1.02;;
45540;SDS011;31265;49.680;8.608;2024-02-16T05:01:19;1.75;;;0.88;;
45540;SDS011;31265;49.680;8.608;2024-02-16T05:03:47;4.35;;;0.90;;
45540;SDS011;31265;49.680;8.608;2024-02-16T05:06:18;2.38;;;1.02;;
45540;SDS011;31265;49.680;8.608;2024-02-16T05:11:15;2.15;;;0.75;;
45540;SDS011;31265;49.680;8.608;2024-02-16T05:13:43;1.52;;;0.68;;
45540;SDS011;31265;49.680;8.608;2024-02-16T05:16:12;9.85;;;1.13;;
45540;SDS011;31265;49.680;8.608;2024-02-16T05:18:40;1.48;;;0.70;;
45540;SDS011;31265;49.680;8.608;2024-02-16T05:21:09;2.75;;;0.80;;
45540;SDS011;31265;49.680;8.608;2024-02-16T05:23:39;2.10;;;0.90;;
45540;SDS011;31265;49.680;8.608;2024-02-16T05:26:07;1.65;;;0.98;;
45540;SDS011;31265;49.680;8.608;2024-02-16T05:28:36;2.05;;;0.77;;
45540;SDS011;31265;49.680;8.608;2024-02-16T05:31:12;3.35;;;1.50;;
45540;SDS011;31265;49.680;8.608;2024-02-16T05:33:44;3.63;;;0.90;;
45540;SDS011;31265;49.680;8.608;2024-02-16T05:36:15;2.78;;;0.98;;
45540;SDS011;31265;49.680;8.608;2024-02-16T05:38:46;2.33;;;0.88;;
45540;SDS011;31265;49.680;8.608;2024-02-16T05:41:15;2.97;;;0.90;;
45540;SDS011;31265;49.680;8.608;2024-02-16T05:43:45;3.55;;;1.13;;
45540;SDS011;31265;49.680;8.608;2024-02-16T05:46:13;2.53;;;1.33;;
45540;SDS011;31265;49.680;8.608;2024-02-16T05:48:43;1.85;;;0.90;;
45540;SDS011;31265;49.680;8.608;2024-02-16T05:51:13;2.65;;;1.50;;
45540;SDS011;31265;49.680;8.608;2024-02-16T05:53:41;3.67;;;1.13;;
45540;SDS011;31265;49.680;8.608;2024-02-16T05:56:13;1.90;;;1.00;;
45540;SDS011;31265;49.680;8.608;2024-02-16T05:58:42;5.78;;;1.40;;
45540;SDS011;31265;49.680;8.608;2024-02-16T06:01:10;3.00;;;1.50;;
45540;SDS011;31265;49.680;8.608;2024-02-16T06:06:08;3.38;;;1.33;;
45540;SDS011;31265;49.680;8.608;2024-02-16T06:08:37;3.63;;;1.45;;
45540;SDS011;31265;49.680;8.608;2024-02-16T06:11:06;2.92;;;1.20;;
45540;SDS011;31265;49.680;8.608;2024-02-16T06:13:37;3.33;;;1.38;;
45540;SDS011;31265;49.680;8.608;2024-02-16T06:16:06;2.67;;;1.23;;
45540;SDS011;31265;49.680;8.608;2024-02-16T06:18:35;2.88;;;1.23;;
45540;SDS011;31265;49.680;8.608;2024-02-16T06:21:04;2.13;;;1.15;;
45540;SDS011;31265;49.680;8.608;2024-02-16T06:23:33;2.50;;;1.10;;
45540;SDS011;31265;49.680;8.608;2024-02-16T06:26:01;2.65;;;1.42;;
45540;SDS011;31265;49.680;8.608;2024-02-16T06:28:32;2.17;;;1.10;;
45540;SDS011;31265;49.680;8.608;2024-02-16T06:31:02;2.05;;;0.88;;
45540;SDS011;31265;49.680;8.608;2024-02-16T06:33:31;2.22;;;1.00;;
45540;SDS011;31265;49.680;8.608;2024-02-16T06:35:59;3.53;;;1.50;;
45540;SDS011;31265;49.680;8.608;2024-02-16T06:38:29;2.83;;;1.23;;
45540;SDS011;31265;49.680;8.608;2024-02-16T06:40:58;3.15;;;0.93;;
45540;SDS011;31265;49.680;8.608;2024-02-16T06:43:26;8.90;;;1.73;;
45540;SDS011;31265;49.680;8.608;2024-02-16T06:45:54;2.55;;;1.20;;
45540;SDS011;31265;49.680;8.608;2024-02-16T06:48:25;3.73;;;1.63;;
45540;SDS011;31265;49.680;8.608;2024-02-16T06:50:53;4.18;;;1.40;;
45540;SDS011;31265;49.680;8.608;2024-02-16T06:53:24;4.32;;;1.65;;
45540;SDS011;31265;49.680;8.608;2024-02-16T06:55:53;2.70;;;1.30;;
45540;SDS011;31265;49.680;8.608;2024-02-16T06:58:21;4.32;;;1.80;;
45540;SDS011;31265;49.680;8.608;2024-02-16T07:00:52;4.40;;;1.25;;
45540;SDS011;31265;49.680;8.608;2024-02-16T07:03:21;3.47;;;1.48;;
45540;SDS011;31265;49.680;8.608;2024-02-16T07:05:52;4.55;;;2.03;;
45540;SDS011;31265;49.680;8.608;2024-02-16T07:08:20;2.67;;;1.23;;
45540;SDS011;31265;49.680;8.608;2024-02-16T07:10:50;3.60;;;1.42;;
45540;SDS011;31265;49.680;8.608;2024-02-16T07:15:49;4.47;;;1.65;;
45540;SDS011;31265;49.680;8.608;2024-02-16T07:18:20;4.70;;;1.40;;
45540;SDS011;31265;49.680;8.608;2024-02-16T07:20:53;4.25;;;1.33;;
45540;SDS011;31265;49.680;8.608;2024-02-16T07:23:22;3.50;;;1.70;;
45540;SDS011;31265;49.680;8.608;2024-02-16T07:25:50;3.25;;;1.40;;
45540;SDS011;31265;49.680;8.608;2024-02-16T07:28:22;3.63;;;1.35;;
45540;SDS011;31265;49.680;8.608;2024-02-16T07:30:50;4.30;;;1.05;;
45540;SDS011;31265;49.680;8.608;2024-02-16T07:33:20;5.28;;;2.33;;
45540;SDS011;31265;49.680;8.608;2024-02-16T07:35:53;3.28;;;1.85;;
45540;SDS011;31265;49.680;8.608;2024-02-16T07:38:21;4.13;;;1.48;;
45540;SDS011;31265;49.680;8.608;2024-02-16T07:40:50;3.10;;;1.65;;
45540;SDS011;31265;49.680;8.608;2024-02-16T07:43:18;4.30;;;2.17;;
45540;SDS011;31265;49.680;8.608;2024-02-16T07:45:48;3.85;;;1.98;;
45540;SDS011;31265;49.680;8.608;2024-02-16T07:48:18;3.13;;;1.63;;
45540;SDS011;31265;49.680;8.608;2024-02-16T07:50:47;4.60;;;1.85;;
45540;SDS011;31265;49.680;8.608;2024-02-16T07:53:19;4.20;;;2.05;;
45540;SDS011;31265;49.680;8.608;2024-02-16T07:58:15;2.35;;;1.33;;
45540;SDS011;31265;49.680;8.608;2024-02-16T08:00:43;4.57;;;2.10;;
45540;SDS011;31265;49.680;8.608;2024-02-16T08:03:12;5.15;;;1.45;;
45540;SDS011;31265;49.680;8.608;2024-02-16T08:05:41;4.78;;;2.10;;
45540;SDS011;31265;49.680;8.608;2024-02-16T08:08:10;3.42;;;1.67;;
45540;SDS011;31265;49.680;8.608;2024-02-16T08:10:39;5.97;;;1.80;;
45540;SDS011;31265;49.680;8.608;2024-02-16T08:13:08;5.13;;;2.10;;
45540;SDS011;31265;49.680;8.608;2024-02-16T08:15:36;7.25;;;2.22;;
45540;SDS011;31265;49.680;8.608;2024-02-16T08:18:04;4.45;;;2.25;;
45540;SDS011;31265;49.680;8.608;2024-02-16T08:20:34;3.63;;;1.63;;
45540;SDS011;31265;49.680;8.608;2024-02-16T08:23:04;5.60;;;1.88;;
45540;SDS011;31265;49.680;8.608;2024-02-16T08:25:32;3.28;;;1.52;;
45540;SDS011;31265;49.680;8.608;2024-02-16T08:28:02;5.35;;;2.22;;
45540;SDS011;31265;49.680;8.608;2024-02-16T08:30:36;3.50;;;1.65;;
45540;SDS011;31265;49.680;8.608;2024-02-16T08:33:08;4.03;;;1.45;;
45540;SDS011;31265;49.680;8.608;2024-02-16T08:35:36;3.70;;;1.63;;
45540;SDS011;31265;49.680;8.608;2024-02-16T08:40:37;4.18;;;1.90;;
45540;SDS011;31265;49.680;8.608;2024-02-16T08:43:07;26.75;;;2.33;;
45540;SDS011;31265;49.680;8.608;2024-02-16T08:45:36;4.47;;;1.83;;
45540;SDS011;31265;49.680;8.608;2024-02-16T08:48:06;5.90;;;1.90;;
45540;SDS011;31265;49.680;8.608;2024-02-16T08:50:35;6.30;;;2.03;;
45540;SDS011;31265;49.680;8.608;2024-02-16T08:53:04;6.60;;;1.35;;
45540;SDS011;31265;49.680;8.608;2024-02-16T08:55:32;2.83;;;1.73;;
45540;SDS011;31265;49.680;8.608;2024-02-16T08:58:00;3.60;;;1.80;;
45540;SDS011;31265;49.680;8.608;2024-02-16T09:00:30;4.05;;;1.30;;
45540;SDS011;31265;49.680;8.608;2024-02-16T09:02:58;4.07;;;1.55;;
45540;SDS011;31265;49.680;8.608;2024-02-16T09:05:29;3.72;;;1.50;;
45540;SDS011;31265;49.680;8.608;2024-02-16T09:07:58;4.13;;;1.60;;
45540;SDS011;31265;49.680;8.608;2024-02-16T09:10:27;5.88;;;1.92;;
45540;SDS011;31265;49.680;8.608;2024-02-16T09:12:57;4.32;;;1.55;;
45540;SDS011;31265;49.680;8.608;2024-02-16T09:15:25;3.28;;;1.15;;
45540;SDS011;31265;49.680;8.608;2024-02-16T09:17:56;3.42;;;1.60;;
45540;SDS011;31265;49.680;8.608;2024-02-16T09:20:24;2.75;;;1.13;;
45540;SDS011;31265;49.680;8.608;2024-02-16T09:22:53;3.90;;;1.50;;
45540;SDS011;31265;49.680;8.608;2024-02-16T09:25:21;9.88;;;1.80;;
45540;SDS011;31265;49.680;8.608;2024-02-16T09:27:50;5.97;;;2.10;;
45540;SDS011;31265;49.680;8.608;2024-02-16T09:30:18;4.30;;;2.08;;
45540;SDS011;31265;49.680;8.608;2024-02-16T09:32:48;3.05;;;1.27;;
45540;SDS011;31265;49.680;8.608;2024-02-16T09:35:19;3.97;;;1.60;;
45540;SDS011;31265;49.680;8.608;2024-02-16T09:37:47;4.22;;;1.75;;
45540;SDS011;31265;49.680;8.608;2024-02-16T09:40:16;4.07;;;1.77;;
45540;SDS011;31265;49.680;8.608;2024-02-16T09:42:47;6.38;;;1.58;;
45540;SDS011;31265;49.680;8.608;2024-02-16T09:45:17;3.13;;;1.70;;
45540;SDS011;31265;49.680;8.608;2024-02-16T09:47:46;6.25;;;2.25;;
45540;SDS011;31265;49.680;8.608;2024-02-16T09:50:28;4.28;;;1.63;;
45540;SDS011;31265;49.680;8.608;2024-02-16T09:52:57;3.95;;;1.65;;
45540;SDS011;31265;49.680;8.608;2024-02-16T09:55:29;3.72;;;2.10;;
45540;SDS011;31265;49.680;8.608;2024-02-16T09:58:00;5.60;;;2.00;;
45540;SDS011;31265;49.680;8.608;2024-02-16T10:00:29;7.45;;;1.75;;
45540;SDS011;31265;49.680;8.608;2024-02-16T10:02:57;5.18;;;2.20;;
45540;SDS011;31265;49.680;8.608;2024-02-16T10:05:26;4.40;;;1.60;;
45540;SDS011;31265;49.680;8.608;2024-02-16T10:07:57;4.40;;;1.70;;
45540;SDS011;31265;49.680;8.608;2024-02-16T10:10:26;5.50;;;2.10;;
45540;SDS011;31265;49.680;8.608;2024-02-16T10:13:01;3.97;;;1.83;;
45540;SDS011;31265;49.680;8.608;2024-02-16T10:15:31;5.00;;;2.05;;
45540;SDS011;31265;49.680;8.608;2024-02-16T10:18:00;4.85;;;2.08;;
45540;SDS011;31265;49.680;8.608;2024-02-16T10:20:33;3.85;;;1.88;;
45540;SDS011;31265;49.680;8.608;2024-02-16T10:23:03;3.45;;;1.75;;
45540;SDS011;31265;49.680;8.608;2024-02-16T10:25:33;3.00;;;1.45;;
45540;SDS011;31265;49.680;8.608;2024-02-16T10:28:03;4.82;;;2.20;;
45540;SDS011;31265;49.680;8.608;2024-02-16T10:30:34;2.30;;;1.40;;
45540;SDS011;31265;49.680;8.608;2024-02-16T10:33:04;6.72;;;2.22;;
45540;SDS011;31265;49.680;8.608;2024-02-16T10:35:36;9.45;;;1.80;;
45540;SDS011;31265;49.680;8.608;2024-02-16T10:38:06;3.45;;;1.83;;
45540;SDS011;31265;49.680;8.608;2024-02-16T10:40:37;5.10;;;2.40;;
45540;SDS011;31265;49.680;8.608;2024-02-16T10:43:07;5.82;;;2.13;;
45540;SDS011;31265;49.680;8.608;2024-02-16T10:45:38;4.25;;;1.85;;
45540;SDS011;31265;49.680;8.608;2024-02-16T10:48:07;4.70;;;1.98;;
45540;SDS011;31265;49.680;8.608;2024-02-16T10:50:38;3.72;;;1.63;;
45540;SDS011;31265;49.680;8.608;2024-02-16T10:53:09;6.47;;;1.80;;
45540;SDS011;31265;49.680;8.608;2024-02-16T10:55:42;5.75;;;2.25;;
45540;SDS011;31265;49.680;8.608;2024-02-16T10:58:13;3.95;;;1.48;;
45540;SDS011;31265;49.680;8.608;2024-02-16T11:00:49;8.38;;;1.52;;
45540;SDS011;31265;49.680;8.608;2024-02-16T11:03:21;4.03;;;1.58;;
45540;SDS011;31265;49.680;8.608;2024-02-16T11:05:52;6.57;;;1.83;;
45540;SDS011;31265;49.680;8.608;2024-02-16T11:08:23;2.10;;;1.17;;
45540;SDS011;31265;49.680;8.608;2024-02-16T11:10:55;4.90;;;2.17;;
45540;SDS011;31265;49.680;8.608;2024-02-16T11:13:25;3.75;;;1.65;;
45540;SDS011;31265;49.680;8.608;2024-02-16T11:15:57;3.75;;;1.85;;
45540;SDS011;31265;49.680;8.608;2024-02-16T11:18:27;5.80;;;2.22;;
45540;SDS011;31265;49.680;8.608;2024-02-16T11:21:01;2.97;;;1.70;;
45540;SDS011;31265;49.680;8.608;2024-02-16T11:23:31;5.65;;;1.58;;
45540;SDS011;31265;49.680;8.608;2024-02-16T11:26:00;2.22;;;1.40;;
45540;SDS011;31265;49.680;8.608;2024-02-16T11:28:31;4.35;;;1.90;;
45540;SDS011;31265;49.680;8.608;2024-02-16T11:31:00;7.90;;;2.03;;
45540;SDS011;31265;49.680;8.608;2024-02-16T11:33:29;3.95;;;1.73;;
45540;SDS011;31265;49.680;8.608;2024-02-16T11:36:00;4.18;;;1.30;;
45540;SDS011;31265;49.680;8.608;2024-02-16T11:38:30;4.13;;;1.35;;
45540;SDS011;31265;49.680;8.608;2024-02-16T11:41:01;3.88;;;1.58;;
45540;SDS011;31265;49.680;8.608;2024-02-16T11:43:31;5.13;;;1.60;;
45540;SDS011;31265;49.680;8.608;2024-02-16T11:45:59;3.25;;;1.25;;
45540;SDS011;31265;49.680;8.608;2024-02-16T11:48:38;3.60;;;1.53;;
45540;SDS011;31265;49.680;8.608;2024-02-16T11:51:08;4.63;;;1.43;;
45540;SDS011;31265;49.680;8.608;2024-02-16T11:53:37;2.97;;;1.58;;
45540;SDS011;31265;49.680;8.608;2024-02-16T11:56:06;4.22;;;1.20;;
45540;SDS011;31265;49.680;8.608;2024-02-16T11:58:34;6.97;;;1.33;;
45540;SDS011;31265;49.680;8.608;2024-02-16T12:01:03;3.13;;;1.00;;
45540;SDS011;31265;49.680;8.608;2024-02-16T12:03:40;3.47;;;1.05;;
45540;SDS011;31265;49.680;8.608;2024-02-16T12:06:18;2.65;;;1.00;;
45540;SDS011;31265;49.680;8.608;2024-02-16T12:08:50;5.80;;;0.85;;
45540;SDS011;31265;49.680;8.608;2024-02-16T12:11:20;2.03;;;0.70;;
45540;SDS011;31265;49.680;8.608;2024-02-16T12:13:49;8.07;;;0.82;;
45540;SDS011;31265;49.680;8.608;2024-02-16T12:16:18;8.35;;;1.25;;
45540;SDS011;31265;49.680;8.608;2024-02-16T12:18:47;2.03;;;0.80;;
45540;SDS011;31265;49.680;8.608;2024-02-16T12:21:17;4.97;;;1.02;;
45540;SDS011;31265;49.680;8.608;2024-02-16T12:23:48;1.38;;;0.77;;
45540;SDS011;31265;49.680;8.608;2024-02-16T12:26:19;3.20;;;0.82;;
45540;SDS011;31265;49.680;8.608;2024-02-16T12:28:48;4.60;;;1.10;;
45540;SDS011;31265;49.680;8.608;2024-02-16T12:31:20;3.22;;;0.85;;
45540;SDS011;31265;49.680;8.608;2024-02-16T12:33:49;3.70;;;0.80;;
45540;SDS011;31265;49.680;8.608;2024-02-16T12:36:19;2.07;;;0.80;;
45540;SDS011;31265;49.680;8.608;2024-02-16T12:38:53;3.10;;;0.93;;
45540;SDS011;31265;49.680;8.608;2024-02-16T12:41:22;4.63;;;0.80;;
45540;SDS011;31265;49.680;8.608;2024-02-16T12:43:50;2.38;;;0.60;;
45540;SDS011;31265;49.680;8.608;2024-02-16T12:46:19;3.30;;;1.10;;
45540;SDS011;31265;49.680;8.608;2024-02-16T12:48:48;2.72;;;0.80;;
45540;SDS011;31265;49.680;8.608;2024-02-16T12:51:17;6.25;;;1.00;;
45540;SDS011;31265;49.680;8.608;2024-02-16T12:53:47;1.48;;;0.70;;
45540;SDS011;31265;49.680;8.608;2024-02-16T12:56:16;2.55;;;0.52;;
45540;SDS011;31265;49.680;8.608;2024-02-16T12:58:44;5.88;;;1.55;;
45540;SDS011;31265;49.680;8.608;2024-02-16T13:01:12;1.08;;;0.60;;
45540;SDS011;31265;49.680;8.608;2024-02-16T13:06:20;5.03;;;0.80;;
45540;SDS011;31265;49.680;8.608;2024-02-16T13:08:55;2.42;;;0.80;;
45540;SDS011;31265;49.680;8.608;2024-02-16T13:11:23;2.83;;;0.70;;
45540;SDS011;31265;49.680;8.608;2024-02-16T13:13:53;5.72;;;0.90;;
45540;SDS011;31265;49.680;8.608;2024-02-16T13:16:22;5.05;;;1.73;;
45540;SDS011;31265;49.680;8.608;2024-02-16T13:18:50;2.90;;;0.90;;
45540;SDS011;31265;49.680;8.608;2024-02-16T13:21:19;5.25;;;1.20;;
45540;SDS011;31265;49.680;8.608;2024-02-16T13:23:47;1.45;;;0.75;;
45540;SDS011;31265;49.680;8.608;2024-02-16T13:26:17;2.25;;;0.63;;
45540;SDS011;31265;49.680;8.608;2024-02-16T13:28:46;1.88;;;0.88;;
45540;SDS011;31265;49.680;8.608;2024-02-16T13:31:14;3.97;;;0.75;;
45540;SDS011;31265;49.680;8.608;2024-02-16T13:33:43;2.08;;;0.55;;
45540;SDS011;31265;49.680;8.608;2024-02-16T13:36:12;4.30;;;0.90;;
45540;SDS011;31265;49.680;8.608;2024-02-16T13:38:40;2.72;;;1.40;;
45540;SDS011;31265;49.680;8.608;2024-02-16T13:41:09;1.88;;;1.05;;
45540;SDS011;31265;49.680;8.608;2024-02-16T13:43:39;1.67;;;1.02;;
45540;SDS011;31265;49.680;8.608;2024-02-16T13:46:07;4.78;;;0.95;;
45540;SDS011;31265;49.680;8.608;2024-02-16T13:48:35;4.97;;;1.05;;
45540;SDS011;31265;49.680;8.608;2024-02-16T13:51:07;3.55;;;0.85;;
45540;SDS011;31265;49.680;8.608;2024-02-16T13:53:35;1.73;;;0.57;;
45540;SDS011;31265;49.680;8.608;2024-02-16T13:56:04;4.78;;;1.05;;
45540;SDS011;31265;49.680;8.608;2024-02-16T13:58:33;4.28;;;1.15;;
45540;SDS011;31265;49.680;8.608;2024-02-16T14:01:05;1.50;;;0.90;;
45540;SDS011;31265;49.680;8.608;2024-02-16T14:03:34;6.57;;;0.88;;
45540;SDS011;31265;49.680;8.608;2024-02-16T14:06:04;2.17;;;0.43;;
45540;SDS011;31265;49.680;8.608;2024-02-16T14:08:37;2.45;;;0.75;;
45540;SDS011;31265;49.680;8.608;2024-02-16T14:11:05;4.18;;;1.65;;
45540;SDS011;31265;49.680;8.608;2024-02-16T14:13:35;2.50;;;0.60;;
45540;SDS011;31265;49.680;8.608;2024-02-16T14:16:06;3.17;;;1.10;;
45540;SDS011;31265;49.680;8.608;2024-02-16T14:18:37;2.70;;;1.33;;
45540;SDS011;31265;49.680;8.608;2024-02-16T14:21:05;3.17;;;1.42;;
45540;SDS011;31265;49.680;8.608;2024-02-16T14:23:34;0.93;;;0.40;;
45540;SDS011;31265;49.680;8.608;2024-02-16T14:26:02;4.80;;;0.70;;
45540;SDS011;31265;49.680;8.608;2024-02-16T14:28:32;2.00;;;0.57;;
45540;SDS011;31265;49.680;8.608;2024-02-16T14:31:00;2.42;;;1.08;;
45540;SDS011;31265;49.680;8.608;2024-02-16T14:33:31;2.10;;;0.65;;
45540;SDS011;31265;49.680;8.608;2024-02-16T14:36:04;1.52;;;0.50;;
45540;SDS011;31265;49.680;8.608;2024-02-16T14:38:35;2.22;;;0.70;;
45540;SDS011;31265;49.680;8.608;2024-02-16T14:41:04;2.40;;;0.88;;
45540;SDS011;31265;49.680;8.608;2024-02-16T14:43:32;2.38;;;0.77;;
45540;SDS011;31265;49.680;8.608;2024-02-16T14:46:01;1.63;;;0.60;;
45540;SDS011;31265;49.680;8.608;2024-02-16T14:48:32;1.73;;;0.52;;
45540;SDS011;31265;49.680;8.608;2024-02-16T14:51:02;6.32;;;0.88;;
45540;SDS011;31265;49.680;8.608;2024-02-16T14:53:31;1.48;;;0.55;;
45540;SDS011;31265;49.680;8.608;2024-02-16T14:56:00;3.03;;;0.70;;
45540;SDS011;31265;49.680;8.608;2024-02-16T14:58:30;0.90;;;0.30;;
45540;SDS011;31265;49.680;8.608;2024-02-16T15:01:00;2.58;;;0.77;;
45540;SDS011;31265;49.680;8.608;2024-02-16T15:03:28;3.47;;;0.60;;
45540;SDS011;31265;49.680;8.608;2024-02-16T15:05:59;4.07;;;1.00;;
45540;SDS011;31265;49.680;8.608;2024-02-16T15:08:28;4.93;;;0.60;;
45540;SDS011;31265;49.680;8.608;2024-02-16T15:10:57;2.53;;;0.55;;
45540;SDS011;31265;49.680;8.608;2024-02-16T15:13:26;2.67;;;0.47;;
45540;SDS011;31265;49.680;8.608;2024-02-16T15:15:58;1.58;;;0.57;;
45540;SDS011;31265;49.680;8.608;2024-02-16T15:18:27;3.28;;;0.70;;
45540;SDS011;31265;49.680;8.608;2024-02-16T15:20:56;2.47;;;1.10;;
45540;SDS011;31265;49.680;8.608;2024-02-16T15:23:26;4.50;;;0.63;;
45540;SDS011;31265;49.680;8.608;2024-02-16T15:28:23;3.28;;;0.82;;
45540;SDS011;31265;49.680;8.608;2024-02-16T15:30:51;3.97;;;0.93;;
45540;SDS011;31265;49.680;8.608;2024-02-16T15:33:20;2.67;;;1.02;;